createdAt,value
2023-05-05T00:00:38.103Z,0.20
2023-05-05T00:03:07.747Z,0.20
2023-05-05T00:05:36.236Z,0.30
2023-05-05T00:08:07.790Z,0.30
2023-05-05T00:10:36.668Z,0.30
2023-05-05T00:13:05.036Z,0.30
2023-05-05T00:15:33.666Z,0.30
2023-05-05T00:18:02.113Z,0.30
2023-05-05T00:20:30.556Z,0.40
2023-05-05T00:22:58.997Z,0.20
2023-05-05T00:25:29.295Z,0.30
2023-05-05T00:27:57.774Z,0.40
2023-05-05T00:30:26.387Z,0.30
2023-05-05T00:32:55.564Z,0.30
2023-05-05T00:35:24.104Z,0.30
2023-05-05T00:37:52.484Z,0.30
2023-05-05T00:40:21.210Z,0.30
2023-05-05T00:42:51.713Z,0.30
2023-05-05T00:45:21.397Z,0.30
2023-05-05T00:47:52.495Z,0.30
2023-05-05T00:50:24.708Z,0.20
2023-05-05T00:52:56.086Z,0.40
2023-05-05T00:55:24.482Z,0.30
2023-05-05T00:57:54.440Z,0.30
2023-05-05T01:00:23.240Z,0.30
2023-05-05T01:02:53.169Z,0.30
2023-05-05T01:05:24.489Z,0.30
2023-05-05T01:08:12.654Z,0.30
2023-05-05T01:10:46.410Z,0.30
2023-05-05T01:13:26.904Z,0.30
2023-05-05T01:16:03.017Z,0.30
2023-05-05T01:18:38.703Z,0.30
2023-05-05T01:21:13.856Z,0.30
2023-05-05T01:24:11.945Z,0.30
2023-05-05T01:26:53.882Z,0.20
2023-05-05T01:29:40.055Z,0.30
2023-05-05T01:32:12.171Z,0.33
2023-05-05T01:34:46.351Z,0.30
2023-05-05T01:37:20.130Z,0.30
2023-05-05T01:39:54.106Z,0.40
2023-05-05T01:42:23.502Z,0.30
2023-05-05T01:44:54.347Z,0.30
2023-05-05T01:47:26.623Z,0.20
2023-05-05T01:49:57.386Z,0.30
2023-05-05T01:52:27.839Z,0.30
2023-05-05T01:54:58.678Z,0.20
2023-05-05T01:57:31.379Z,0.30
2023-05-05T02:00:06.157Z,0.30
2023-05-05T02:02:37.966Z,0.30
2023-05-05T02:05:08.451Z,0.30
2023-05-05T02:07:38.318Z,0.30
2023-05-05T02:10:09.251Z,0.30
2023-05-05T02:13:07.535Z,0.30
2023-05-05T02:15:38.931Z,0.30
2023-05-05T02:18:09.393Z,0.30
2023-05-05T02:20:40.070Z,0.30
2023-05-05T02:23:08.908Z,0.30
2023-05-05T02:25:41.317Z,0.30
2023-05-05T02:28:17.122Z,0.30
2023-05-05T02:30:47.952Z,0.30
2023-05-05T02:33:22.493Z,0.20
2023-05-05T02:35:53.173Z,0.30
2023-05-05T02:38:24.950Z,0.30
2023-05-05T02:40:56.456Z,0.33
2023-05-05T02:43:26.723Z,0.20
2023-05-05T02:45:55.086Z,0.20
2023-05-05T02:48:24.741Z,0.30
2023-05-05T02:50:52.987Z,0.27
2023-05-05T02:53:26.615Z,0.30
2023-05-05T02:55:58.444Z,0.30
2023-05-05T02:58:32.643Z,0.30
2023-05-05T03:01:09.882Z,0.30
2023-05-05T03:03:45.522Z,0.23
2023-05-05T03:06:18.728Z,0.30
2023-05-05T03:09:07.462Z,0.40
2023-05-05T03:11:39.662Z,0.23
2023-05-05T03:14:11.735Z,0.50
2023-05-05T03:16:42.934Z,0.40
2023-05-05T03:19:13.830Z,0.30
2023-05-05T03:21:43.016Z,0.30
2023-05-05T03:24:16.499Z,0.30
2023-05-05T03:26:45.640Z,0.40
2023-05-05T03:29:14.257Z,0.40
2023-05-05T03:31:42.931Z,0.30
2023-05-05T03:34:12.670Z,0.30
2023-05-05T03:36:41.037Z,0.30
2023-05-05T03:39:09.260Z,0.40
2023-05-05T03:41:37.484Z,0.30
2023-05-05T03:44:06.155Z,0.40
2023-05-05T03:46:34.343Z,0.30
2023-05-05T03:49:02.580Z,0.33
2023-05-05T03:51:32.216Z,0.40
2023-05-05T03:54:00.541Z,0.30
2023-05-05T03:56:28.849Z,0.30
2023-05-05T03:58:57.069Z,0.40
2023-05-05T04:01:25.368Z,0.40
2023-05-05T04:03:53.693Z,0.30
2023-05-05T04:06:22.002Z,0.30
2023-05-05T04:08:51.994Z,0.30
2023-05-05T04:11:20.216Z,0.30
2023-05-05T04:13:49.983Z,0.40
2023-05-05T04:16:18.259Z,0.40
2023-05-05T04:18:46.626Z,0.40
2023-05-05T04:21:15.022Z,0.40
2023-05-05T04:23:43.284Z,0.30
2023-05-05T04:26:13.105Z,0.30
2023-05-05T04:28:42.042Z,0.30
2023-05-05T04:31:10.769Z,0.40
2023-05-05T04:33:39.042Z,0.40
2023-05-05T04:36:07.875Z,0.40
2023-05-05T04:38:36.871Z,0.40
2023-05-05T04:41:07.381Z,0.30
2023-05-05T04:43:37.004Z,0.30
2023-05-05T04:46:05.744Z,0.30
2023-05-05T04:48:34.450Z,0.43
2023-05-05T04:51:06.242Z,0.30
2023-05-05T04:53:34.555Z,0.30
2023-05-05T04:56:03.433Z,0.40
2023-05-05T04:58:32.212Z,0.30
2023-05-05T05:01:01.833Z,0.30
2023-05-05T05:03:31.975Z,0.20
2023-05-05T05:06:00.490Z,0.30
2023-05-05T05:08:28.876Z,0.40
2023-05-05T05:10:57.479Z,0.30
2023-05-05T05:13:25.738Z,0.30
2023-05-05T05:15:54.688Z,0.30
2023-05-05T05:18:24.581Z,0.30
2023-05-05T05:20:52.982Z,0.30
2023-05-05T05:23:21.210Z,0.30
2023-05-05T05:25:49.549Z,0.30
2023-05-05T05:28:18.045Z,0.30
2023-05-05T05:30:46.291Z,0.30
2023-05-05T05:33:14.564Z,0.30
2023-05-05T05:35:44.333Z,0.30
2023-05-05T05:38:12.488Z,0.30
2023-05-05T05:40:40.764Z,0.30
2023-05-05T05:43:09.264Z,0.30
2023-05-05T05:45:37.678Z,0.30
2023-05-05T05:48:06.798Z,0.30
2023-05-05T05:50:35.970Z,0.30
2023-05-05T05:53:05.747Z,0.30
2023-05-05T05:55:34.050Z,0.30
2023-05-05T05:58:02.357Z,0.30
2023-05-05T06:00:30.769Z,0.30
2023-05-05T06:02:59.396Z,0.30
2023-05-05T06:05:27.809Z,0.20
2023-05-05T06:07:56.287Z,0.30
2023-05-05T06:10:28.277Z,0.20
2023-05-05T06:12:58.215Z,0.30
2023-05-05T06:15:26.544Z,0.30
2023-05-05T06:17:54.988Z,0.30
2023-05-05T06:20:23.187Z,0.27
2023-05-05T06:22:51.650Z,0.30
2023-05-05T06:25:20.040Z,0.30
2023-05-05T06:27:49.632Z,0.20
2023-05-05T06:30:18.284Z,0.20
2023-05-05T06:32:46.545Z,0.30
2023-05-05T06:35:15.052Z,0.30
2023-05-05T06:37:44.197Z,0.20
2023-05-05T06:40:13.210Z,0.20
2023-05-05T06:42:41.637Z,0.20
2023-05-05T06:45:12.615Z,0.20
2023-05-05T06:47:40.965Z,0.20
2023-05-05T06:50:10.862Z,0.20
2023-05-05T06:52:39.316Z,0.20
2023-05-05T06:55:08.451Z,0.20
2023-05-05T06:57:36.838Z,0.20
2023-05-05T07:00:09.733Z,0.20
2023-05-05T07:02:40.049Z,0.20
2023-05-05T07:05:08.900Z,0.20
2023-05-05T07:07:37.532Z,0.30
2023-05-05T07:10:06.584Z,0.20
2023-05-05T07:12:35.357Z,0.30
2023-05-05T07:15:15.486Z,0.20
2023-05-05T07:17:53.745Z,0.27
2023-05-05T07:20:21.955Z,0.20
2023-05-05T07:22:50.246Z,0.20
2023-05-05T07:25:18.495Z,0.20
2023-05-05T07:27:46.999Z,0.20
2023-05-05T07:30:18.431Z,0.20
2023-05-05T07:32:47.945Z,0.30
2023-05-05T07:35:17.752Z,0.20
2023-05-05T07:37:46.519Z,0.20
2023-05-05T07:40:15.076Z,0.30
2023-05-05T07:42:43.618Z,0.20
2023-05-05T07:45:12.358Z,0.20
2023-05-05T07:47:40.926Z,0.20
2023-05-05T07:50:10.409Z,0.20
2023-05-05T07:55:11.770Z,0.20
2023-05-05T07:57:40.198Z,0.20
2023-05-05T08:00:10.499Z,0.20
2023-05-05T08:02:39.038Z,0.20
2023-05-05T08:05:08.581Z,0.20
2023-05-05T08:07:41.216Z,0.20
2023-05-05T08:10:12.579Z,0.20
2023-05-05T08:12:40.977Z,0.20
2023-05-05T08:15:10.414Z,0.20
2023-05-05T08:17:47.333Z,0.10
2023-05-05T08:20:16.016Z,0.20
2023-05-05T08:22:44.301Z,0.20
2023-05-05T08:25:14.805Z,0.20
2023-05-05T08:27:44.385Z,0.20
2023-05-05T08:30:13.586Z,0.20
2023-05-05T08:32:41.953Z,0.20
2023-05-05T08:35:11.107Z,0.10
2023-05-05T08:37:39.628Z,0.20
2023-05-05T08:40:09.179Z,0.20
2023-05-05T08:42:39.663Z,0.20
2023-05-05T08:45:10.409Z,0.20
2023-05-05T08:47:40.155Z,0.20
2023-05-05T08:50:12.395Z,0.17
2023-05-05T08:52:44.131Z,0.20
2023-05-05T08:55:19.305Z,0.20
2023-05-05T08:57:53.462Z,0.20
2023-05-05T09:00:22.797Z,0.20
2023-05-05T09:02:51.914Z,0.20
2023-05-05T09:05:20.408Z,0.20
2023-05-05T09:07:49.160Z,0.20
2023-05-05T09:10:18.156Z,0.20
2023-05-05T09:12:50.130Z,0.10
2023-05-05T09:15:18.485Z,0.10
2023-05-05T09:17:46.801Z,0.10
2023-05-05T09:20:16.222Z,0.10
2023-05-05T09:22:46.756Z,0.20
2023-05-05T09:25:16.420Z,0.20
2023-05-05T09:27:46.971Z,0.20
2023-05-05T09:30:18.829Z,0.10
2023-05-05T09:32:49.028Z,0.10
2023-05-05T09:35:18.290Z,0.10
2023-05-05T09:37:46.921Z,0.10
2023-05-05T09:40:17.023Z,0.10
2023-05-05T09:42:45.490Z,0.20
2023-05-05T09:45:28.221Z,0.10
2023-05-05T09:47:59.863Z,0.10
2023-05-05T09:50:30.939Z,0.20
2023-05-05T09:53:01.099Z,0.20
2023-05-05T09:55:31.179Z,0.20
2023-05-05T09:58:17.906Z,0.10
2023-05-05T10:00:48.073Z,0.20
2023-05-05T10:03:17.645Z,0.20
2023-05-05T10:05:51.740Z,0.10
2023-05-05T10:08:21.404Z,0.10
2023-05-05T10:10:52.806Z,0.10
2023-05-05T10:13:22.977Z,0.10
2023-05-05T10:15:54.521Z,0.10
2023-05-05T10:18:24.725Z,0.10
2023-05-05T10:20:59.359Z,0.10
2023-05-05T10:23:35.744Z,0.10
2023-05-05T10:26:06.929Z,0.10
2023-05-05T10:28:38.433Z,0.10
2023-05-05T10:31:25.181Z,0.10
2023-05-05T10:33:56.387Z,0.10
2023-05-05T10:36:26.521Z,0.20
2023-05-05T10:38:57.859Z,0.10
2023-05-05T10:41:27.717Z,0.10
2023-05-05T10:43:57.774Z,0.10
2023-05-05T10:46:29.399Z,0.10
2023-05-05T10:49:03.971Z,0.10
2023-05-05T10:51:42.133Z,0.10
2023-05-05T10:54:18.273Z,0.10
2023-05-05T10:56:48.948Z,0.10
2023-05-05T10:59:45.528Z,0.20
2023-05-05T11:02:23.844Z,0.10
2023-05-05T11:05:15.510Z,0.10
2023-05-05T11:07:45.244Z,0.10
2023-05-05T11:10:15.184Z,0.10
2023-05-05T11:13:21.344Z,0.10
2023-05-05T11:15:52.597Z,0.10
2023-05-05T11:18:36.088Z,0.10
2023-05-05T11:21:19.205Z,0.10
2023-05-05T11:23:50.387Z,0.10
2023-05-05T11:26:20.556Z,0.10
2023-05-05T11:29:03.445Z,0.10
2023-05-05T11:31:33.251Z,0.17
2023-05-05T11:34:28.971Z,0.10
2023-05-05T11:37:01.521Z,0.10
2023-05-05T11:39:42.215Z,0.10
2023-05-05T11:42:24.646Z,0.10
2023-05-05T11:44:54.026Z,0.10
2023-05-05T11:47:33.228Z,0.10
2023-05-05T11:50:18.799Z,0.10
2023-05-05T11:52:48.375Z,0.10
2023-05-05T11:55:24.334Z,0.10
2023-05-05T11:57:53.477Z,0.10
2023-05-05T12:00:32.548Z,0.10
2023-05-05T12:03:04.741Z,0.10
2023-05-05T12:05:36.773Z,0.20
2023-05-05T12:08:05.955Z,0.10
2023-05-05T12:10:37.037Z,0.10
2023-05-05T12:13:05.930Z,0.10
2023-05-05T12:15:34.987Z,0.20
2023-05-05T12:18:03.614Z,0.10
2023-05-05T12:20:36.572Z,0.10
2023-05-05T12:23:05.889Z,0.10
2023-05-05T12:25:41.186Z,0.10
2023-05-05T12:28:10.468Z,0.10
2023-05-05T12:30:38.817Z,0.10
2023-05-05T12:33:08.676Z,0.10
2023-05-05T12:35:38.501Z,0.10
2023-05-05T12:38:07.021Z,0.10
2023-05-05T12:40:48.987Z,0.10
2023-05-05T12:43:28.712Z,0.10
2023-05-05T12:46:05.096Z,0.10
2023-05-05T12:48:33.581Z,0.10
2023-05-05T12:51:18.039Z,0.10
2023-05-05T12:53:47.324Z,0.10
2023-05-05T12:56:37.865Z,0.10
2023-05-05T12:59:07.750Z,0.10
2023-05-05T13:01:36.733Z,0.10
2023-05-05T13:04:10.723Z,0.10
2023-05-05T13:06:41.581Z,0.10
2023-05-05T13:09:11.127Z,0.10
2023-05-05T13:11:40.173Z,0.10
2023-05-05T13:14:09.354Z,0.13
2023-05-05T13:16:37.823Z,0.10
2023-05-05T13:19:06.161Z,0.10
2023-05-05T13:21:34.519Z,0.10
2023-05-05T13:24:21.434Z,0.20
2023-05-05T13:26:53.209Z,0.20
2023-05-05T13:29:21.684Z,0.10
2023-05-05T13:31:50.700Z,0.10
2023-05-05T13:34:19.096Z,0.20
2023-05-05T13:36:47.538Z,0.10
2023-05-05T13:39:17.309Z,0.10
2023-05-05T13:41:45.822Z,0.10
2023-05-05T13:44:14.767Z,0.10
2023-05-05T13:46:44.219Z,0.10
2023-05-05T13:49:12.763Z,0.10
2023-05-05T13:51:41.106Z,0.10
2023-05-05T13:54:09.594Z,0.10
2023-05-05T13:56:39.933Z,0.10
2023-05-05T13:59:08.410Z,0.10
2023-05-05T14:01:36.693Z,0.10
2023-05-05T14:04:05.910Z,0.10
2023-05-05T14:06:35.822Z,0.10
2023-05-05T14:09:06.212Z,0.10
2023-05-05T14:11:35.220Z,0.10
2023-05-05T14:14:05.021Z,0.10
2023-05-05T14:16:33.640Z,0.10
2023-05-05T14:19:01.897Z,0.20
2023-05-05T14:21:30.137Z,0.10
2023-05-05T14:23:58.572Z,0.10
2023-05-05T14:26:27.336Z,0.10
2023-05-05T14:28:55.903Z,0.10
2023-05-05T14:31:25.744Z,0.10
2023-05-05T14:33:54.470Z,0.20
2023-05-05T14:36:23.579Z,0.20
2023-05-05T14:38:52.033Z,0.10
2023-05-05T14:41:20.502Z,0.10
2023-05-05T14:43:48.854Z,0.10
2023-05-05T14:46:17.275Z,0.10
2023-05-05T14:48:47.549Z,0.10
2023-05-05T14:51:16.388Z,0.20
2023-05-05T14:53:44.718Z,0.17
2023-05-05T14:56:13.153Z,0.20
2023-05-05T14:58:41.586Z,0.20
2023-05-05T15:01:10.024Z,0.20
2023-05-05T15:03:38.464Z,0.20
2023-05-05T15:06:08.971Z,0.20
2023-05-05T15:08:39.025Z,0.20
2023-05-05T15:11:07.686Z,0.20
2023-05-05T15:13:38.618Z,0.10
2023-05-05T15:16:07.690Z,0.20
2023-05-05T15:18:36.619Z,0.20
2023-05-05T15:21:07.447Z,0.20
2023-05-05T15:23:35.952Z,0.20
2023-05-05T15:26:04.929Z,0.20
2023-05-05T15:28:41.977Z,0.30
2023-05-05T15:31:10.621Z,0.20
2023-05-05T15:33:39.879Z,0.20
2023-05-05T15:36:10.897Z,0.20
2023-05-05T15:38:43.906Z,0.20
2023-05-05T15:41:12.397Z,0.20
2023-05-05T15:43:40.924Z,0.20
2023-05-05T15:46:09.154Z,0.20
2023-05-05T15:48:37.490Z,0.20
2023-05-05T15:51:06.399Z,0.20
2023-05-05T15:53:36.598Z,0.20
2023-05-05T15:56:05.111Z,0.20
2023-05-05T15:58:34.537Z,0.20
2023-05-05T16:01:03.114Z,0.20
2023-05-05T16:03:31.895Z,0.20
2023-05-05T16:06:00.778Z,0.20
2023-05-05T16:08:29.184Z,0.17
2023-05-05T16:10:59.470Z,0.20
2023-05-05T16:13:28.165Z,0.20
2023-05-05T16:15:56.990Z,0.20
2023-05-05T16:18:25.690Z,0.20
2023-05-05T16:20:54.095Z,0.27
2023-05-05T16:23:22.415Z,0.20
2023-05-05T16:25:50.993Z,0.20
2023-05-05T16:28:20.802Z,0.20
2023-05-05T16:30:50.034Z,0.10
2023-05-05T16:33:19.564Z,0.20
2023-05-05T16:35:48.175Z,0.20
2023-05-05T16:38:16.873Z,0.20
2023-05-05T16:40:45.176Z,0.13
2023-05-05T16:43:13.544Z,0.20
2023-05-05T16:45:43.561Z,0.20
2023-05-05T16:48:14.088Z,0.20
2023-05-05T16:50:44.150Z,0.20
2023-05-05T16:53:12.698Z,0.30
2023-05-05T16:55:41.427Z,0.20
2023-05-05T16:58:09.891Z,0.20
2023-05-05T17:00:38.583Z,0.20
2023-05-05T17:03:08.652Z,0.20
2023-05-05T17:05:37.176Z,0.20
2023-05-05T17:08:07.157Z,0.20
2023-05-05T17:10:35.638Z,0.20
2023-05-05T17:13:04.566Z,0.20
2023-05-05T17:15:33.626Z,0.20
2023-05-05T17:18:02.631Z,0.20
2023-05-05T17:20:33.234Z,0.20
2023-05-05T17:23:02.182Z,0.20
2023-05-05T17:25:31.656Z,0.20
2023-05-05T17:28:00.136Z,0.20
2023-05-05T17:30:28.691Z,0.20
2023-05-05T17:32:57.073Z,0.20
2023-05-05T17:35:25.841Z,0.20
2023-05-05T17:37:56.382Z,0.20
2023-05-05T17:40:24.999Z,0.20
2023-05-05T17:42:53.984Z,0.20
2023-05-05T17:45:22.746Z,0.20
2023-05-05T17:47:51.070Z,0.23
2023-05-05T17:50:20.070Z,0.20
2023-05-05T17:52:48.483Z,0.20
2023-05-05T17:55:18.808Z,0.20
2023-05-05T17:57:47.405Z,0.20
2023-05-05T18:00:16.734Z,0.20
2023-05-05T18:02:45.486Z,0.20
2023-05-05T18:05:14.164Z,0.30
2023-05-05T18:07:42.617Z,0.20
2023-05-05T18:10:12.183Z,0.30
2023-05-05T18:12:42.335Z,0.20
2023-05-05T18:15:12.419Z,0.20
2023-05-05T18:17:41.282Z,0.20
2023-05-05T18:20:10.991Z,0.20
2023-05-05T18:22:39.772Z,0.30
2023-05-05T18:25:10.391Z,0.20
2023-05-05T18:27:40.309Z,0.20
2023-05-05T18:30:11.316Z,0.20
2023-05-05T18:32:39.950Z,0.30
2023-05-05T18:35:09.676Z,0.20
2023-05-05T18:37:38.541Z,0.20
2023-05-05T18:40:10.001Z,0.20
2023-05-05T18:42:38.717Z,0.20
2023-05-05T18:45:09.991Z,0.20
2023-05-05T18:47:40.002Z,0.20
2023-05-05T18:50:10.075Z,0.20
2023-05-05T18:52:38.531Z,0.20
2023-05-05T18:55:07.629Z,0.20
2023-05-05T18:57:36.370Z,0.20
2023-05-05T19:00:05.448Z,0.27
2023-05-05T19:02:35.608Z,0.20
2023-05-05T19:05:04.131Z,0.30
2023-05-05T19:07:35.824Z,0.20
2023-05-05T19:10:06.255Z,0.30
2023-05-05T19:12:35.533Z,0.20
2023-05-05T19:15:04.037Z,0.40
2023-05-05T19:17:32.635Z,0.30
2023-05-05T19:20:02.435Z,0.20
2023-05-05T19:22:31.400Z,0.30
2023-05-05T19:24:59.992Z,0.20
2023-05-05T19:27:28.774Z,0.20
2023-05-05T19:29:57.727Z,0.30
2023-05-05T19:32:26.794Z,0.30
2023-05-05T19:34:55.961Z,0.20
2023-05-05T19:37:26.683Z,0.20
2023-05-05T19:39:55.100Z,0.30
2023-05-05T19:42:23.800Z,0.30
2023-05-05T19:44:52.284Z,0.20
2023-05-05T19:47:20.691Z,0.20
2023-05-05T19:49:48.934Z,0.20
2023-05-05T19:52:17.296Z,0.20
2023-05-05T19:54:47.222Z,0.20
2023-05-05T19:57:15.651Z,0.20
2023-05-05T19:59:44.032Z,0.20
2023-05-05T20:02:12.692Z,0.30
2023-05-05T20:04:41.566Z,0.20
2023-05-05T20:07:10.387Z,0.20
2023-05-05T20:09:39.261Z,0.20
2023-05-05T20:12:09.791Z,0.20
2023-05-05T20:14:38.628Z,0.30
2023-05-05T20:17:07.004Z,0.20
2023-05-05T20:19:35.452Z,0.20
2023-05-05T20:22:03.829Z,0.20
2023-05-05T20:24:33.996Z,0.30
2023-05-05T20:27:02.523Z,0.30
2023-05-05T20:29:32.441Z,0.20
2023-05-05T20:32:00.892Z,0.30
2023-05-05T20:34:31.300Z,0.20
2023-05-05T20:36:59.880Z,0.30
2023-05-05T20:39:28.297Z,0.20
2023-05-05T20:41:57.065Z,0.30
2023-05-05T20:44:25.873Z,0.20
2023-05-05T20:46:55.686Z,0.20
2023-05-05T20:49:24.092Z,0.30
2023-05-05T20:51:52.466Z,0.20
2023-05-05T20:54:21.320Z,0.20
2023-05-05T20:56:49.513Z,0.30
2023-05-05T20:59:17.919Z,0.30
2023-05-05T21:01:46.338Z,0.30
2023-05-05T21:04:16.075Z,0.30
2023-05-05T21:06:44.411Z,0.30
2023-05-05T21:09:12.898Z,0.30
2023-05-05T21:11:41.193Z,0.30
2023-05-05T21:14:10.547Z,0.20
2023-05-05T21:16:38.906Z,0.20
2023-05-05T21:19:07.505Z,0.30
2023-05-05T21:21:37.294Z,0.27
2023-05-05T21:24:07.924Z,0.30
2023-05-05T21:26:36.574Z,0.30
2023-05-05T21:29:05.487Z,0.27
2023-05-05T21:31:33.882Z,0.23
2023-05-05T21:34:02.404Z,0.20
2023-05-05T21:36:31.958Z,0.30
2023-05-05T21:39:01.776Z,0.30
2023-05-05T21:41:30.131Z,0.30
2023-05-05T21:43:59.471Z,0.20
2023-05-05T21:46:27.914Z,0.23
2023-05-05T21:48:56.457Z,0.20
2023-05-05T21:51:24.737Z,0.30
2023-05-05T21:53:53.118Z,0.20
2023-05-05T21:56:22.930Z,0.20
2023-05-05T21:58:51.202Z,0.27
2023-05-05T22:01:19.591Z,0.30
2023-05-05T22:03:49.636Z,0.30
2023-05-05T22:06:20.514Z,0.20
2023-05-05T22:08:49.252Z,0.20
2023-05-05T22:11:19.089Z,0.20
2023-05-05T22:13:49.098Z,0.30
2023-05-05T22:16:18.407Z,0.30
2023-05-05T22:18:47.122Z,0.30
2023-05-05T22:21:15.498Z,0.30
2023-05-05T22:23:43.919Z,0.30
2023-05-05T22:26:12.682Z,0.30
2023-05-05T22:28:41.687Z,0.27
2023-05-05T22:31:11.653Z,0.30
2023-05-05T22:33:40.021Z,0.30
2023-05-05T22:36:10.131Z,0.30
2023-05-05T22:38:38.929Z,0.27
2023-05-05T22:41:08.489Z,0.30
2023-05-05T22:43:37.134Z,0.30
2023-05-05T22:46:07.015Z,0.30
2023-05-05T22:48:36.970Z,0.30
2023-05-05T22:51:05.490Z,0.20
2023-05-05T22:53:33.806Z,0.30
2023-05-05T22:56:02.231Z,0.40
2023-05-05T22:58:30.606Z,0.30
2023-05-05T23:00:59.133Z,0.20
2023-05-05T23:03:27.538Z,0.30
2023-05-05T23:05:57.318Z,0.20
2023-05-05T23:08:25.765Z,0.30
2023-05-05T23:10:55.067Z,0.20
2023-05-05T23:13:23.467Z,0.30
2023-05-05T23:15:54.820Z,0.30
2023-05-05T23:18:23.163Z,0.30
2023-05-05T23:20:51.554Z,0.30
2023-05-05T23:23:21.249Z,0.30
2023-05-05T23:25:49.652Z,0.30
2023-05-05T23:28:18.524Z,0.23
2023-05-05T23:30:47.011Z,0.30
2023-05-05T23:33:15.290Z,0.30
2023-05-05T23:35:45.651Z,0.30
2023-05-05T23:38:14.082Z,0.30
2023-05-05T23:40:43.705Z,0.30
2023-05-05T23:43:12.853Z,0.27
2023-05-05T23:45:41.271Z,0.30
2023-05-05T23:48:09.975Z,0.20
2023-05-05T23:50:38.375Z,0.30
2023-05-05T23:53:06.768Z,0.30
2023-05-05T23:55:35.080Z,0.30
2023-05-05T23:58:04.714Z,0.30
